createdAt,value
2019-03-16T00:01:18.798Z,4.63
2019-03-16T00:03:46.852Z,4.80
2019-03-16T00:06:15.130Z,4.67
2019-03-16T00:08:43.511Z,4.63
2019-03-16T00:11:11.720Z,4.43
2019-03-16T00:13:39.658Z,4.53
2019-03-16T00:16:07.613Z,5.17
2019-03-16T00:18:35.526Z,4.97
2019-03-16T00:21:03.395Z,4.97
2019-03-16T00:23:31.356Z,6.10
2019-03-16T00:25:59.308Z,5.30
2019-03-16T00:28:27.258Z,5.87
2019-03-16T00:30:55.115Z,5.33
2019-03-16T00:33:23.038Z,5.37
2019-03-16T00:35:50.864Z,5.50
2019-03-16T00:38:18.859Z,4.83
2019-03-16T00:40:46.775Z,4.60
2019-03-16T00:43:16.148Z,4.00
2019-03-16T00:45:44.414Z,4.40
2019-03-16T00:48:14.090Z,4.20
2019-03-16T00:50:41.944Z,4.93
2019-03-16T00:53:09.739Z,4.57
2019-03-16T00:55:37.631Z,4.67
2019-03-16T00:58:05.494Z,4.27
2019-03-16T01:00:33.525Z,4.87
2019-03-16T01:03:01.449Z,4.73
2019-03-16T01:05:29.551Z,4.93
2019-03-16T01:07:57.435Z,4.60
2019-03-16T01:10:25.499Z,4.57
2019-03-16T01:12:53.412Z,4.90
2019-03-16T01:15:22.002Z,4.47
2019-03-16T01:17:50.307Z,5.00
2019-03-16T01:20:18.263Z,5.10
2019-03-16T01:22:46.085Z,4.83
2019-03-16T01:25:13.956Z,4.97
2019-03-16T01:27:41.869Z,4.13
2019-03-16T01:30:12.205Z,4.27
2019-03-16T01:32:41.118Z,4.10
2019-03-16T01:35:09.571Z,6.07
2019-03-16T01:37:37.773Z,6.77
2019-03-16T01:40:05.932Z,7.17
2019-03-16T01:42:33.834Z,6.57
2019-03-16T01:45:01.666Z,4.80
2019-03-16T01:47:29.826Z,5.67
2019-03-16T01:49:58.218Z,5.30
2019-03-16T01:52:26.175Z,4.27
2019-03-16T01:54:54.147Z,4.33
2019-03-16T01:57:22.155Z,4.10
2019-03-16T01:59:50.076Z,5.30
2019-03-16T02:02:17.943Z,5.10
2019-03-16T02:04:45.824Z,4.80
2019-03-16T02:07:13.650Z,5.20
2019-03-16T02:09:41.582Z,5.80
2019-03-16T02:12:09.436Z,6.30
2019-03-16T02:14:37.949Z,4.87
2019-03-16T02:17:05.837Z,4.73
2019-03-16T02:19:35.998Z,4.70
2019-03-16T02:22:03.872Z,5.00
2019-03-16T02:24:31.867Z,4.33
2019-03-16T02:26:59.875Z,3.90
2019-03-16T02:29:27.884Z,4.07
2019-03-16T02:31:55.819Z,3.83
2019-03-16T02:34:29.562Z,3.87
2019-03-16T02:36:57.604Z,4.00
2019-03-16T02:39:25.524Z,4.20
2019-03-16T02:41:53.396Z,4.20
2019-03-16T02:44:21.280Z,3.80
2019-03-16T02:46:49.175Z,4.40
2019-03-16T02:49:17.389Z,4.63
2019-03-16T02:51:45.565Z,4.10
2019-03-16T02:54:13.424Z,4.33
2019-03-16T02:56:41.357Z,4.17
2019-03-16T02:59:09.315Z,4.40
2019-03-16T03:01:37.269Z,4.17
2019-03-16T03:04:05.117Z,3.90
2019-03-16T03:06:33.069Z,3.80
2019-03-16T03:09:00.988Z,3.80
2019-03-16T03:11:29.234Z,3.70
2019-03-16T03:13:57.514Z,3.70
2019-03-16T03:16:25.488Z,4.77
2019-03-16T03:18:53.417Z,3.80
2019-03-16T03:21:21.363Z,4.17
2019-03-16T03:23:49.226Z,4.20
2019-03-16T03:26:17.154Z,4.17
2019-03-16T03:28:45.444Z,4.37
2019-03-16T03:31:13.260Z,3.70
2019-03-16T03:33:58.723Z,4.27
2019-03-16T03:36:10.845Z,4.27
2019-03-16T03:38:38.777Z,4.03
2019-03-16T03:41:06.668Z,4.63
2019-03-16T03:43:34.641Z,3.77
2019-03-16T03:46:02.838Z,4.87
2019-03-16T03:48:31.061Z,4.23
2019-03-16T03:50:59.040Z,4.10
2019-03-16T03:53:26.931Z,3.87
2019-03-16T03:55:55.015Z,3.77
2019-03-16T03:58:22.943Z,4.10
2019-03-16T04:00:50.829Z,4.20
2019-03-16T04:03:18.811Z,4.80
2019-03-16T04:05:46.772Z,4.07
2019-03-16T04:08:16.452Z,4.50
2019-03-16T04:10:44.347Z,4.40
2019-03-16T04:13:12.276Z,3.90
2019-03-16T04:15:40.329Z,4.13
2019-03-16T04:18:08.302Z,4.17
2019-03-16T04:20:36.225Z,4.57
2019-03-16T04:23:04.186Z,4.27
2019-03-16T04:25:32.997Z,4.33
2019-03-16T04:28:00.827Z,4.37
2019-03-16T04:30:28.922Z,4.37
2019-03-16T04:32:56.783Z,4.00
2019-03-16T04:35:24.798Z,4.20
2019-03-16T04:37:52.604Z,4.13
2019-03-16T04:40:20.508Z,3.83
2019-03-16T04:42:48.407Z,4.33
2019-03-16T04:45:16.364Z,4.20
2019-03-16T04:47:44.282Z,4.13
2019-03-16T04:50:12.298Z,3.93
2019-03-16T04:52:40.250Z,3.97
2019-03-16T04:55:08.559Z,4.50
2019-03-16T04:57:36.482Z,4.37
2019-03-16T05:00:04.975Z,3.90
2019-03-16T05:02:32.882Z,3.97
2019-03-16T05:05:00.811Z,4.23
2019-03-16T05:07:28.720Z,3.80
2019-03-16T05:09:56.999Z,4.20
2019-03-16T05:12:25.096Z,4.03
2019-03-16T05:14:52.983Z,3.80
2019-03-16T05:17:20.931Z,3.97
2019-03-16T05:19:48.834Z,4.07
2019-03-16T05:22:16.718Z,4.43
2019-03-16T05:24:44.742Z,4.07
2019-03-16T05:27:12.626Z,5.70
2019-03-16T05:29:40.521Z,5.20
2019-03-16T05:32:08.487Z,5.20
2019-03-16T05:34:36.427Z,4.77
2019-03-16T05:37:04.383Z,4.10
2019-03-16T05:39:32.299Z,4.67
2019-03-16T05:42:00.235Z,4.30
2019-03-16T05:44:28.123Z,4.30
2019-03-16T05:46:56.131Z,3.97
2019-03-16T05:49:24.043Z,4.13
2019-03-16T05:51:51.916Z,4.80
2019-03-16T05:54:19.846Z,4.57
2019-03-16T05:56:47.758Z,4.90
2019-03-16T05:59:15.702Z,3.90
2019-03-16T06:01:43.631Z,4.20
2019-03-16T06:04:11.535Z,4.70
2019-03-16T06:06:39.981Z,4.37
2019-03-16T06:09:07.851Z,4.37
2019-03-16T06:11:35.814Z,4.40
2019-03-16T06:14:03.650Z,4.60
2019-03-16T06:16:31.658Z,4.90
2019-03-16T06:18:59.702Z,4.60
2019-03-16T06:21:27.676Z,5.23
2019-03-16T06:23:55.594Z,5.13
2019-03-16T06:26:23.482Z,4.93
2019-03-16T06:28:51.406Z,5.30
2019-03-16T06:31:19.294Z,5.43
2019-03-16T06:33:47.281Z,5.50
2019-03-16T06:36:15.216Z,5.53
2019-03-16T06:38:43.088Z,4.47
2019-03-16T06:41:10.971Z,4.70
2019-03-16T06:43:39.098Z,4.67
2019-03-16T06:46:07.487Z,4.67
2019-03-16T06:48:35.404Z,5.17
2019-03-16T06:51:03.274Z,5.70
2019-03-16T06:53:31.154Z,7.13
2019-03-16T06:55:58.982Z,8.53
2019-03-16T06:58:26.866Z,9.00
2019-03-16T07:01:10.508Z,8.87
2019-03-16T07:03:52.484Z,15.60
2019-03-16T07:06:34.956Z,149.30
2019-03-16T07:09:17.663Z,299.83
2019-03-16T07:12:01.279Z,288.73
2019-03-16T07:15:00.373Z,182.57
2019-03-16T07:17:42.484Z,54.73
2019-03-16T07:20:24.148Z,28.57
2019-03-16T07:23:06.101Z,23.60
2019-03-16T07:25:48.608Z,19.87
2019-03-16T07:28:32.579Z,12.83
2019-03-16T07:31:14.885Z,10.67
2019-03-16T07:33:56.410Z,10.33
2019-03-16T07:36:39.102Z,27.07
2019-03-16T07:39:21.487Z,30.53
2019-03-16T07:42:03.095Z,33.97
2019-03-16T07:44:46.274Z,35.77
2019-03-16T07:47:29.329Z,38.10
2019-03-16T07:50:24.886Z,37.00
2019-03-16T07:54:08.401Z,18.37
2019-03-16T08:01:43.794Z,33.77
2019-03-16T08:04:45.556Z,61.97
2019-03-16T08:07:12.255Z,118.17
2019-03-16T08:09:40.118Z,47.00
2019-03-16T08:12:08.070Z,48.67
2019-03-16T08:15:18.517Z,37.60
2019-03-16T08:17:58.522Z,39.80
2019-03-16T08:20:41.962Z,33.03
2019-03-16T08:23:10.458Z,19.17
2019-03-16T08:25:38.414Z,16.47
2019-03-16T08:28:06.458Z,14.73
2019-03-16T08:30:34.319Z,12.60
2019-03-16T08:33:02.254Z,10.23
2019-03-16T08:35:30.404Z,10.40
2019-03-16T08:37:58.700Z,10.70
2019-03-16T08:40:26.710Z,11.37
2019-03-16T08:42:54.572Z,10.63
2019-03-16T08:45:22.494Z,11.23
2019-03-16T08:47:50.519Z,11.10
2019-03-16T08:50:18.447Z,10.90
2019-03-16T08:52:46.709Z,10.57
2019-03-16T08:55:14.658Z,10.77
2019-03-16T08:57:43.999Z,10.10
2019-03-16T09:00:28.901Z,10.10
2019-03-16T09:03:13.637Z,9.70
2019-03-16T09:05:41.781Z,10.50
2019-03-16T09:08:09.761Z,10.40
2019-03-16T09:10:37.644Z,10.07
2019-03-16T09:13:05.690Z,9.97
2019-03-16T09:15:33.702Z,10.37
2019-03-16T09:18:01.889Z,9.97
2019-03-16T09:20:30.283Z,11.03
2019-03-16T09:22:58.325Z,10.60
2019-03-16T09:25:26.388Z,10.97
2019-03-16T09:27:54.310Z,12.90
2019-03-16T09:30:22.187Z,11.97
2019-03-16T09:32:50.070Z,15.17
2019-03-16T09:35:18.014Z,15.03
2019-03-16T09:37:45.882Z,14.93
2019-03-16T09:40:13.929Z,12.90
2019-03-16T09:42:41.948Z,11.00
2019-03-16T09:45:18.627Z,11.10
2019-03-16T09:49:09.240Z,11.13
2019-03-16T09:51:34.983Z,10.00
2019-03-16T09:54:03.086Z,8.07
2019-03-16T09:56:30.991Z,8.10
2019-03-16T09:58:58.802Z,7.43
2019-03-16T10:01:41.137Z,6.13
2019-03-16T10:04:22.597Z,7.23
2019-03-16T10:06:50.768Z,6.47
2019-03-16T10:09:18.711Z,5.93
2019-03-16T10:11:46.604Z,4.73
2019-03-16T10:14:14.555Z,4.60
2019-03-16T10:16:42.415Z,4.53
2019-03-16T10:19:35.524Z,4.67
2019-03-16T10:24:59.045Z,4.53
2019-03-16T10:27:26.994Z,5.93
2019-03-16T10:29:54.973Z,6.33
2019-03-16T10:32:22.830Z,6.73
2019-03-16T10:34:50.746Z,7.47
2019-03-16T10:37:32.322Z,8.77
2019-03-16T10:40:14.725Z,8.37
2019-03-16T10:42:55.022Z,8.23
2019-03-16T10:45:57.648Z,8.33
2019-03-16T10:48:40.278Z,8.50
2019-03-16T10:51:59.903Z,7.25
2019-03-16T10:58:56.473Z,8.73
2019-03-16T11:05:55.329Z,7.97
2019-03-16T11:09:26.627Z,8.18
2019-03-16T11:16:14.361Z,7.70
2019-03-16T11:23:35.689Z,8.23
2019-03-16T11:27:08.771Z,7.35
2019-03-16T11:30:33.576Z,6.92
2019-03-16T11:33:01.463Z,6.60
2019-03-16T11:35:29.409Z,7.22
2019-03-16T11:37:57.383Z,7.12
2019-03-16T11:40:25.254Z,5.95
2019-03-16T11:42:53.208Z,7.20
2019-03-16T11:45:35.586Z,6.80
2019-03-16T11:48:19.813Z,7.72
2019-03-16T11:51:03.089Z,6.80
2019-03-16T11:53:30.867Z,6.62
2019-03-16T11:56:52.055Z,7.17
2019-03-16T12:04:46.615Z,6.47
2019-03-16T12:08:15.941Z,5.85
2019-03-16T12:10:41.382Z,5.50
2019-03-16T12:13:17.241Z,5.53
2019-03-16T12:15:56.397Z,6.28
2019-03-16T12:18:24.439Z,6.40
2019-03-16T12:20:52.351Z,5.58
2019-03-16T12:23:34.399Z,5.20
2019-03-16T12:27:04.488Z,5.75
2019-03-16T12:29:33.895Z,5.55
2019-03-16T12:31:58.545Z,5.40
2019-03-16T12:34:26.419Z,5.37
2019-03-16T12:36:54.336Z,5.42
2019-03-16T12:39:22.284Z,5.33
2019-03-16T12:41:50.106Z,7.15
2019-03-16T12:44:18.022Z,6.65
2019-03-16T12:46:45.948Z,9.25
2019-03-16T12:49:13.877Z,4.37
2019-03-16T12:51:55.890Z,3.80
2019-03-16T12:54:37.782Z,3.80
2019-03-16T12:57:19.872Z,3.72
2019-03-16T13:00:00.508Z,3.95
2019-03-16T13:03:12.068Z,3.62
2019-03-16T13:10:33.192Z,3.80
2019-03-16T13:14:05.836Z,3.92
2019-03-16T13:17:58.063Z,3.90
2019-03-16T13:21:16.426Z,3.37
2019-03-16T13:24:56.613Z,3.70
2019-03-16T13:28:43.982Z,3.42
2019-03-16T13:31:47.832Z,3.50
2019-03-16T13:35:03.271Z,3.67
2019-03-16T13:38:15.385Z,3.50
2019-03-16T13:41:42.725Z,4.12
2019-03-16T13:53:39.095Z,3.70
2019-03-16T13:56:43.917Z,4.20
2019-03-16T14:00:13.822Z,3.70
2019-03-16T14:06:42.250Z,4.35
2019-03-16T14:09:38.121Z,3.77
2019-03-16T14:13:01.811Z,4.45
2019-03-16T14:16:22.536Z,4.22
2019-03-16T14:19:26.764Z,3.72
2019-03-16T14:21:54.028Z,4.15
2019-03-16T14:24:22.628Z,3.90
2019-03-16T14:26:57.072Z,4.20
2019-03-16T14:29:54.192Z,4.28
2019-03-16T14:32:22.146Z,4.00
2019-03-16T14:34:50.414Z,3.77
2019-03-16T14:37:31.926Z,4.08
2019-03-16T14:40:14.297Z,4.10
2019-03-16T14:42:55.823Z,3.60
2019-03-16T14:46:08.212Z,3.83
2019-03-16T14:48:34.563Z,3.98
2019-03-16T14:51:02.492Z,4.05
2019-03-16T14:53:44.143Z,3.45
2019-03-16T14:57:22.538Z,2.92
2019-03-16T15:04:08.454Z,3.20
2019-03-16T15:06:49.990Z,3.47
2019-03-16T15:09:18.059Z,4.00
2019-03-16T15:11:45.957Z,4.05
2019-03-16T15:14:21.515Z,3.77
2019-03-16T15:16:43.560Z,3.87
2019-03-16T15:19:15.546Z,3.90
2019-03-16T15:21:47.815Z,3.87
2019-03-16T15:24:19.347Z,3.65
2019-03-16T15:26:51.458Z,3.72
2019-03-16T15:29:19.483Z,3.33
2019-03-16T15:31:47.387Z,3.42
2019-03-16T15:34:15.238Z,4.10
2019-03-16T15:36:43.126Z,4.20
2019-03-16T15:39:11.077Z,4.40
2019-03-16T15:41:38.994Z,4.50
2019-03-16T15:44:06.876Z,3.87
2019-03-16T15:46:34.822Z,3.98
2019-03-16T15:49:06.509Z,3.67
2019-03-16T15:51:38.619Z,4.17
2019-03-16T15:54:06.686Z,4.05
2019-03-16T15:56:34.603Z,4.10
2019-03-16T15:59:02.562Z,3.77
2019-03-16T16:01:30.400Z,4.28
2019-03-16T16:03:58.254Z,3.87
2019-03-16T16:06:26.271Z,3.93
2019-03-16T16:08:54.203Z,3.60
2019-03-16T16:11:28.052Z,4.10
2019-03-16T16:13:59.687Z,4.33
2019-03-16T16:16:57.873Z,4.37
2019-03-16T16:19:30.074Z,4.60
2019-03-16T16:21:58.062Z,4.33
2019-03-16T16:24:26.065Z,4.13
2019-03-16T16:26:54.044Z,4.13
2019-03-16T16:29:21.878Z,4.40
2019-03-16T16:31:49.853Z,4.23
2019-03-16T16:34:17.712Z,4.03
2019-03-16T16:36:45.596Z,4.30
2019-03-16T16:39:14.530Z,4.93
2019-03-16T16:41:42.695Z,4.73
2019-03-16T16:44:10.581Z,4.63
2019-03-16T16:46:38.440Z,4.03
2019-03-16T16:49:06.468Z,4.87
2019-03-16T16:51:34.326Z,4.87
2019-03-16T16:54:02.189Z,5.20
2019-03-16T16:56:30.103Z,5.63
2019-03-16T16:58:58.046Z,5.97
2019-03-16T17:01:29.457Z,6.37
2019-03-16T17:03:56.138Z,7.03
2019-03-16T17:06:24.293Z,7.30
2019-03-16T17:08:52.182Z,7.50
2019-03-16T17:11:28.259Z,7.40
2019-03-16T17:13:56.207Z,6.80
2019-03-16T17:16:54.070Z,5.87
2019-03-16T17:19:22.171Z,6.73
2019-03-16T17:21:50.129Z,6.83
2019-03-16T17:24:18.055Z,7.07
2019-03-16T17:26:49.652Z,14.47
2019-03-16T17:29:21.560Z,13.90
2019-03-16T17:31:49.577Z,8.07
2019-03-16T17:34:17.389Z,7.87
2019-03-16T17:36:45.293Z,8.77
2019-03-16T17:39:13.232Z,15.07
2019-03-16T17:41:41.202Z,10.17
2019-03-16T17:44:09.039Z,14.93
2019-03-16T17:46:37.029Z,10.97
2019-03-16T17:49:04.873Z,7.20
2019-03-16T17:51:32.724Z,8.40
2019-03-16T17:54:00.707Z,7.13
2019-03-16T17:56:28.614Z,6.40
2019-03-16T17:58:56.559Z,10.97
2019-03-16T18:01:24.387Z,8.27
2019-03-16T18:03:52.338Z,8.03
2019-03-16T18:06:20.347Z,8.30
2019-03-16T18:08:48.268Z,7.27
2019-03-16T18:11:22.232Z,7.67
2019-03-16T18:13:49.996Z,6.90
2019-03-16T18:17:02.758Z,9.57
2019-03-16T18:19:30.796Z,9.93
2019-03-16T18:21:58.804Z,11.27
2019-03-16T18:24:26.678Z,12.33
2019-03-16T18:26:54.567Z,11.40
2019-03-16T18:29:22.414Z,9.43
2019-03-16T18:31:50.287Z,11.63
2019-03-16T18:34:18.265Z,13.90
2019-03-16T18:36:46.074Z,14.70
2019-03-16T18:39:13.931Z,13.33
2019-03-16T18:41:41.747Z,12.30
2019-03-16T18:44:10.059Z,10.20
2019-03-16T18:46:38.044Z,10.13
2019-03-16T18:49:06.010Z,10.03
2019-03-16T18:51:33.879Z,12.47
2019-03-16T18:54:01.892Z,10.30
2019-03-16T18:56:29.724Z,12.07
2019-03-16T18:58:57.653Z,10.67
2019-03-16T19:01:26.483Z,10.20
2019-03-16T19:03:54.486Z,9.27
2019-03-16T19:06:22.335Z,8.87
2019-03-16T19:08:50.410Z,7.77
2019-03-16T19:11:21.848Z,10.57
2019-03-16T19:13:49.748Z,11.73
2019-03-16T19:17:02.927Z,12.53
2019-03-16T19:19:28.920Z,10.80
2019-03-16T19:21:56.809Z,11.33
2019-03-16T19:24:24.784Z,22.27
2019-03-16T19:26:52.738Z,22.57
2019-03-16T19:29:20.695Z,30.17
2019-03-16T19:31:48.754Z,26.67
2019-03-16T19:34:16.656Z,45.67
2019-03-16T19:36:44.549Z,37.40
2019-03-16T19:39:12.657Z,18.47
2019-03-16T19:41:41.774Z,16.00
2019-03-16T19:44:09.747Z,14.63
2019-03-16T19:46:37.783Z,14.27
2019-03-16T19:49:07.175Z,13.40
2019-03-16T19:51:35.043Z,13.37
2019-03-16T19:54:02.883Z,15.17
2019-03-16T19:56:30.710Z,14.23
2019-03-16T19:59:00.786Z,13.03
2019-03-16T20:01:28.156Z,9.73
2019-03-16T20:03:56.077Z,8.73
2019-03-16T20:06:26.095Z,8.67
2019-03-16T20:08:53.722Z,6.20
2019-03-16T20:11:22.227Z,7.23
2019-03-16T20:13:50.106Z,7.13
2019-03-16T20:17:00.402Z,7.50
2019-03-16T20:19:26.662Z,6.47
2019-03-16T20:21:54.674Z,7.20
2019-03-16T20:24:22.516Z,6.70
2019-03-16T20:26:50.489Z,6.43
2019-03-16T20:29:18.378Z,7.00
2019-03-16T20:31:47.341Z,6.70
2019-03-16T20:34:15.216Z,6.83
2019-03-16T20:36:43.119Z,6.80
2019-03-16T20:39:11.030Z,6.83
2019-03-16T20:41:38.967Z,6.37
2019-03-16T20:44:06.965Z,6.53
2019-03-16T20:46:35.045Z,7.43
2019-03-16T20:49:03.100Z,6.83
2019-03-16T20:51:30.990Z,6.90
2019-03-16T20:53:58.790Z,6.50
2019-03-16T20:56:26.646Z,6.50
2019-03-16T20:58:54.508Z,6.50
2019-03-16T21:01:22.426Z,6.13
2019-03-16T21:03:50.421Z,6.10
2019-03-16T21:06:18.558Z,6.00
2019-03-16T21:08:46.515Z,6.50
2019-03-16T21:11:14.448Z,5.97
2019-03-16T21:13:42.280Z,7.00
2019-03-16T21:16:55.393Z,6.63
2019-03-16T21:19:21.374Z,6.10
2019-03-16T21:21:49.329Z,6.20
2019-03-16T21:24:17.287Z,6.50
2019-03-16T21:27:29.650Z,6.70
2019-03-16T21:29:55.566Z,8.00
2019-03-16T21:32:23.472Z,7.77
2019-03-16T21:34:51.412Z,7.37
2019-03-16T21:37:19.307Z,8.07
2019-03-16T21:39:47.283Z,7.60
2019-03-16T21:42:15.178Z,7.60
2019-03-16T21:44:43.116Z,7.53
2019-03-16T21:47:11.014Z,8.37
2019-03-16T21:49:38.875Z,7.63
2019-03-16T21:52:06.738Z,8.13
2019-03-16T21:54:34.633Z,7.23
2019-03-16T21:57:02.541Z,7.50
2019-03-16T21:59:30.432Z,8.73
2019-03-16T22:01:58.363Z,10.63
2019-03-16T22:04:26.420Z,10.33
2019-03-16T22:06:54.411Z,8.57
2019-03-16T22:09:22.245Z,7.70
2019-03-16T22:11:50.215Z,7.40
2019-03-16T22:14:31.761Z,7.27
2019-03-16T22:17:09.667Z,7.17
2019-03-16T22:19:37.626Z,6.17
2019-03-16T22:22:05.510Z,6.80
2019-03-16T22:24:33.482Z,7.13
2019-03-16T22:27:01.530Z,6.30
2019-03-16T22:29:29.427Z,7.03
2019-03-16T22:31:57.748Z,6.60
2019-03-16T22:34:25.887Z,7.37
2019-03-16T22:36:53.675Z,7.23
2019-03-16T22:39:21.595Z,6.60
2019-03-16T22:41:49.631Z,6.40
2019-03-16T22:44:17.554Z,6.53
2019-03-16T22:46:45.427Z,6.83
2019-03-16T22:49:13.275Z,6.87
2019-03-16T22:51:41.277Z,7.33
2019-03-16T22:54:09.226Z,5.80
2019-03-16T22:56:37.165Z,6.63
2019-03-16T22:59:05.304Z,6.27
2019-03-16T23:01:33.327Z,7.00
2019-03-16T23:04:06.962Z,6.93
2019-03-16T23:06:30.854Z,6.90
2019-03-16T23:08:58.811Z,7.53
2019-03-16T23:11:28.113Z,7.87
2019-03-16T23:13:56.074Z,7.10
2019-03-16T23:16:23.978Z,6.87
2019-03-16T23:18:53.162Z,7.80
2019-03-16T23:21:21.031Z,8.00
2019-03-16T23:23:49.050Z,7.23
2019-03-16T23:26:16.991Z,7.23
2019-03-16T23:28:44.914Z,9.07
2019-03-16T23:31:13.077Z,11.17
2019-03-16T23:33:41.114Z,10.77
2019-03-16T23:36:09.082Z,9.40
2019-03-16T23:38:37.166Z,9.27
2019-03-16T23:41:05.026Z,8.87
2019-03-16T23:43:32.986Z,8.60
2019-03-16T23:46:00.884Z,8.60
2019-03-16T23:48:28.767Z,9.10
2019-03-16T23:50:56.682Z,9.10
2019-03-16T23:53:24.663Z,8.60
2019-03-16T23:55:52.520Z,8.93
2019-03-16T23:58:20.443Z,9.10
